Saga, Japan

12:50 AM JST on June 03, 2015 (GMT +0900)
Raizan Golf Club | | Change Station
CLOSE
Current Station
Personal Weather Station
Location: 糸島市, 福岡県
Elevation: 529 ft
Nearby Weather Stations

Elev 529 ft 33.52 °N, 130.26 °E | Updated 14 seconds ago

Heavy Rain Showers
Heavy Showers Rain Mist
70.4 °F
Feels Like 70.4 °F
N
0.8
Wind Variable Wind from WSW
Gusts 2.3 mph

Today
High -- | Low -- °F
--% Chance of Precip.
Yesterday
High -- | Low -- °F
Precip. -- in
5:10 AM 7:23 PM
Full, 100% visible
Pressure 29.59 in
Visibility 2.5 miles
Clouds Few 500 ft
Scattered Clouds 2000 ft
Mostly Cloudy 2500 ft
Dew Point 70 °F
Humidity 98%
Rainfall 0.36 in
Snow Depth Not available.
UV 0.0 out of 12
Pollen Not available.
Air Quality Not available.
Flu Activity Not available.
METAR RJFF 021530Z 17006KT 4000 +SHRA BR FEW005 SCT020 BKN025 23/22 Q1002 RMK 1ST005 3CU020 5CU025 A2961

More Conditions Fewer Conditions

Pressure 29.59 in
Visibility 2.5 miles
Clouds Few 500 ft
Scattered Clouds 2000 ft
Mostly Cloudy 2500 ft
Dew Point 70 °F
Humidity 98%
Rainfall 0.36 in
Snow Depth Not available.
UV 0.0 out of 12
Pollen Not available.
Air Quality Not available.
Flu Activity Not available.
METAR RJFF 021530Z 17006KT 4000 +SHRA BR FEW005 SCT020 BKN025 23/22 Q1002 RMK 1ST005 3CU020 5CU025 A2961

More Conditions Fewer Conditions

10-Day Weather Forecast

Almanac

Astronomy

Jun. 03, 2015 Rise Set
Actual Time
Civil Twilight
Nautical Twilight
Astronomical Twilight
Moon
Length of Visible Light
Length of Day
Tomorrow will be .
, % of the Moon is Illuminated

Today's Extremes

Country Highs Country Lows

Community

WunderPhotos

Upload Photos

1,825,966 photos uploaded!

WunderBlogs® & News

Nearby

Air Quality

  Air Quality AQ Index Pollutant
Not available.

Snow Depth

Station Depth Elevation

Earthquake Activity

City Distance Mag. Time & Date
Minimum magnitude displayed is 2.5.

Coastal Water Temperatures

Place Temperature

Stations

Nearby Weather Stations

Station Location Temp. Windchill Dew Point Humidity Wind Precip. Elev Updated Type